Latest Weather Observations for Moree

IDN60801

Issued at 5:04 am EST Saturday 29 August 2015 (issued every 30 minutes, with the page automatically refreshed every 10 minutes)

About weather observations | Map of weather stations | Latest weather observations for NSW | Other Formats
Station Details ID: 053115 Name: MOREE AERO Lat: -29.49 Lon: 149.85 Height: 213.0 m
Data from the previous 72 hours. | See also: Recent months at Moree
Date/Time
EST
Temp
°C
App
Temp
°C
Dew
Point
Rel
Hum
%
Delta-T
°C
Wind Press
QNH
hPa
Press
MSL
hPa
Rain
since 9 am
mm
Dir
 
Spd
km/h
Gust
km/h
Spd
kts
Gust
kts
29/05:00am 4.3 1.2 3.6 95 0.3 E 9 9 5 5 1023.2 1023.2 0.0
29/04:30am 4.4 0.9 3.7 95 0.3 E 11 13 6 7 1023.2 1023.2 0.0
29/04:00am 4.8 1.8 4.1 95 0.3 ESE 9 11 5 6 1023.0 1023.0 0.0
29/03:30am 4.6 1.9 3.6 93 0.4 ENE 7 7 4 4 1023.0 1023.0 0.0
29/03:00am 5.2 1.8 3.9 91 0.6 E 11 15 6 8 1023.1 1023.1 0.0
29/02:30am 5.6 3.5 4.1 90 0.6 ESE 4 15 2 8 1023.1 1023.1 0.0
29/02:00am 5.8 4.5 4.3 90 0.6 CALM 0 0 0 0 1023.3 1023.3 0.0
29/01:30am 5.7 4.4 4.0 89 0.7 CALM 0 0 0 0 1023.5 1023.5 0.0
29/01:00am 5.9 4.6 3.9 87 0.9 CALM 0 0 0 0 1024.0 1024.0 0.0
29/12:30am 7.1 5.9 4.6 84 1.1 CALM 0 0 0 0 1024.2 1024.2 0.0
29/12:00am 7.0 5.8 4.5 84 1.1 CALM 0 0 0 0 1024.0 1024.0 0.0
 
Date/Time
EST
Temp
°C
App
Temp
°C
Dew
Point
Rel
Hum
%
Delta-T
°C
Wind Press
QNH
hPa
Press
MSL
hPa
Rain
since 9 am
mm
Dir
 
Spd
km/h
Gust
km/h
Spd
kts
Gust
kts
28/11:30pm 6.9 5.7 4.4 84 1.1 CALM 0 0 0 0 1024.0 1024.0 0.0
28/11:00pm 7.5 6.3 4.5 81 1.3 CALM 0 0 0 0 1024.0 1024.0 0.0
28/10:30pm 8.6 5.8 5.0 78 1.6 SW 9 11 5 6 1024.3 1024.3 0.0
28/10:00pm 8.5 6.1 5.1 79 1.5 SW 7 9 4 5 1024.1 1024.1 0.0
28/09:30pm 10.6 7.8 5.2 69 2.5 W 9 11 5 6 1024.4 1024.4 0.0
28/09:00pm 9.7 8.0 5.7 76 1.8 WNW 4 11 2 6 1024.3 1024.3 0.0
28/08:30pm 9.8 9.0 6.3 79 1.6 CALM 0 0 0 0 1024.0 1024.0 0.0
28/08:00pm 9.9 9.1 6.4 79 1.6 CALM 0 0 0 0 1024.0 1024.0 0.0
28/07:30pm 10.6 9.8 6.4 75 2.0 CALM 0 0 0 0 1023.5 1023.5 0.0
28/07:00pm 11.5 10.5 5.8 68 2.7 CALM 0 0 0 0 1023.3 1023.3 0.0
28/06:30pm 12.2 9.9 5.8 65 3.0 S 7 7 4 4 1023.2 1023.2 0.0
28/06:00pm 13.4 10.3 5.6 59 3.7 SSW 11 13 6 7 1022.7 1022.7 0.0
28/05:30pm 14.7 11.6 5.5 54 4.4 S 11 13 6 7 1022.6 1022.6 0.0
28/05:00pm 16.1 11.7 4.8 47 5.4 SSW 17 20 9 11 1022.2 1022.2 0.0
28/04:30pm 16.6 11.8 4.6 45 5.7 SW 19 26 10 14 1022.2 1022.2 0.0
28/04:00pm 16.9 11.5 4.3 43 6.0 SW 22 30 12 16 1022.0 1022.0 0.0
28/03:30pm 16.6 11.7 4.3 44 5.8 SW 19 26 10 14 1022.0 1022.0 0.0
28/03:00pm 16.9 12.0 4.3 43 6.0 SW 19 28 10 15 1022.1 1022.1 0.0
28/02:30pm 17.0 11.8 3.7 41 6.3 SW 20 32 11 17 1022.3 1022.3 0.0
28/02:00pm 17.0 11.4 3.7 41 6.2 SW 22 32 12 17 1022.8 1022.8 0.0
28/01:30pm 17.2 12.0 3.5 40 6.4 SSW 20 28 11 15 1022.8 1022.8 0.0
28/01:00pm 16.8 12.6 5.7 48 5.4 SSW 17 26 9 14 1023.1 1023.1 0.0
28/12:30pm 16.4 12.6 6.0 50 5.1 SSW 15 24 8 13 1023.5 1023.5 0.0
28/12:00pm 16.1 12.5 8.3 60 4.0 SW 17 26 9 14 1024.1 1024.1 0.0
28/11:30am 15.4 12.8 9.3 67 3.2 SSW 13 17 7 9 1024.6 1024.6 0.0
28/11:00am 14.3 12.1 9.3 72 2.6 SW 11 17 6 9 1025.1 1025.1 0.0
28/10:30am 13.6 11.5 9.6 77 2.1 SSW 11 15 6 8 1025.4 1025.4 0.0
28/10:00am 13.1 11.4 9.9 81 1.7 SSW 9 13 5 7 1025.3 1025.3 0.0
28/09:30am 11.7 11.4 8.6 81 1.6 CALM 0 0 0 0 1025.4 1025.4 0.0
28/09:18am 11.6 10.3 9.2 85 1.2 WSW 6 9 3 5 1025.4 1025.4 0.0
28/09:00am 10.4 10.0 8.3 87 1.0 CALM 0 4 0 2 1025.5 1025.5 4.2
28/08:30am 10.0 9.8 9.1 94 0.5 CALM 0 0 0 0 1025.4 1025.4 4.2
28/08:00am 10.1 8.8 9.8 98 0.2 W 7 11 4 6 1025.0 1025.0 4.2
28/07:55am 10.1 8.4 9.8 98 0.2 W 9 11 5 6 1024.9 1024.9 4.2
28/07:45am 9.9 8.1 9.6 98 0.2 WSW 9 13 5 7 1024.9 1024.9 4.2
28/07:30am 10.0 8.8 9.7 98 0.2 WSW 6 9 3 5 1024.7 1024.7 4.2
28/07:16am 9.9 8.7 9.6 98 0.2 NW 6 9 3 5 1024.4 1024.4 4.2
28/07:01am 9.8 9.7 9.5 98 0.2 CALM 0 0 0 0 1024.3 1024.3 4.2
28/07:00am 9.8 9.7 9.5 98 0.2 CALM 0 0 0 0 1024.3 1024.3 4.2
28/06:45am 9.6 8.1 9.3 98 0.2 E 7 9 4 5 1024.2 1024.2 4.2
28/06:30am 9.5 8.0 9.2 98 0.1 SE 7 11 4 6 1024.1 1024.1 4.2
28/06:00am 9.2 7.3 8.9 98 0.1 ENE 9 11 5 6 1023.5 1023.5 4.2
28/05:30am 8.9 8.6 8.6 98 0.1 CALM 0 0 0 0 1023.4 1023.4 4.2
28/05:00am 8.8 8.4 8.4 97 0.2 CALM 0 0 0 0 1023.0 1023.0 4.2
28/04:30am 8.7 8.3 8.3 97 0.2 CALM 0 0 0 0 1022.6 1022.6 4.2
28/04:00am 8.9 8.6 8.5 97 0.2 CALM 0 0 0 0 1022.6 1022.6 4.2
28/03:30am 8.8 8.4 8.4 97 0.2 CALM 0 0 0 0 1022.7 1022.7 4.2
28/03:00am 8.6 8.2 8.2 97 0.2 CALM 0 0 0 0 1022.7 1022.7 4.2
28/02:30am 8.2 7.7 7.8 97 0.2 CALM 0 0 0 0 1022.8 1022.8 4.0
28/02:00am 8.0 7.4 7.4 96 0.3 CALM 0 0 0 0 1023.0 1023.0 4.0
28/01:30am 7.7 7.0 7.1 96 0.3 CALM 0 0 0 0 1023.0 1023.0 4.0
28/01:00am 7.5 6.8 6.9 96 0.3 CALM 0 0 0 0 1023.0 1023.0 4.0
28/12:30am 7.2 6.4 6.6 96 0.3 CALM 0 0 0 0 1023.0 1023.0 4.0
28/12:10am 7.2 5.3 6.6 96 0.3 NNE 6 7 3 4 1023.0 1023.0 4.0
28/12:00am 7.4 5.3 6.8 96 0.3 NE 7 7 4 4 1023.0 1023.0 4.0
 
Date/Time
EST
Temp
°C
App
Temp
°C
Dew
Point
Rel
Hum
%
Delta-T
°C
Wind Press
QNH
hPa
Press
MSL
hPa
Rain
since 9 am
mm
Dir
 
Spd
km/h
Gust
km/h
Spd
kts
Gust
kts
27/11:48pm 7.6 5.8 7.0 96 0.3 NE 6 7 3 4 1023.0 1023.0 4.0
27/11:30pm 7.8 6.0 7.2 96 0.3 NE 6 7 3 4 1023.1 1023.1 4.0
27/11:25pm 7.9 6.1 7.3 96 0.3 NE 6 7 3 4 1023.0 1023.0 4.0
27/11:13pm 7.8 5.8 7.2 96 0.3 NE 7 7 4 4 1023.0 1023.0 4.0
27/11:02pm 7.7 5.9 7.0 95 0.3 NE 6 7 3 4 1023.0 1023.0 4.0
27/11:00pm 7.7 5.7 7.0 95 0.3 NE 7 7 4 4 1023.0 1023.0 4.0
27/10:30pm 8.0 5.6 7.2 95 0.4 NE 9 9 5 5 1023.0 1023.0 4.0
27/10:00pm 8.7 6.5 7.9 95 0.4 NE 9 9 5 5 1023.1 1023.1 4.0
27/09:30pm 9.4 9.1 8.5 94 0.4 CALM 0 0 0 0 1023.1 1023.1 4.0
27/09:00pm 9.7 8.1 8.9 95 0.4 NE 7 9 4 5 1023.0 1023.0 4.0
27/08:41pm 10.4 9.0 9.6 95 0.4 NE 7 9 4 5 1023.0 1023.0 4.0
27/08:30pm 10.4 8.6 9.6 95 0.4 NE 9 11 5 6 1022.8 1022.8 4.0
27/08:00pm 10.6 9.4 9.5 93 0.6 NE 6 7 3 4 1022.5 1022.5 4.0
27/07:30pm 11.4 9.9 10.5 94 0.5 NNE 9 11 5 6 1022.5 1022.5 4.0
27/07:00pm 11.8 10.0 10.9 94 0.5 NE 11 15 6 8 1022.1 1022.1 4.0
27/06:30pm 12.0 10.6 10.9 93 0.6 NE 9 13 5 7 1021.8 1021.8 4.0
27/06:00pm 12.1 10.3 10.8 92 0.7 NNE 11 13 6 7 1021.9 1021.9 4.0
27/05:30pm 12.3 12.3 11.0 92 0.7 NE 2 15 1 8 1021.3 1021.3 3.8
27/05:00pm 12.4 12.8 11.1 92 0.7 CALM 0 0 0 0 1021.2 1021.2 3.8
27/04:30pm 12.3 12.6 10.9 91 0.7 CALM 0 0 0 0 1021.0 1021.0 3.8
27/04:08pm 12.3 10.9 10.9 91 0.7 E 9 11 5 6 1020.9 1020.9 3.8
27/04:00pm 12.4 10.7 11.1 92 0.7 E 11 13 6 7 1020.6 1020.6 3.8
27/03:37pm 12.3 10.5 10.9 91 0.7 ENE 11 15 6 8 1020.6 1020.6 3.8
27/03:31pm 12.5 10.4 11.2 92 0.7 ENE 13 17 7 9 1020.5 1020.5 3.8
27/03:30pm 12.4 9.9 11.1 92 0.7 ENE 15 17 8 9 1020.5 1020.5 3.8
27/03:00pm 12.3 11.2 10.7 90 0.8 ENE 7 11 4 6 1020.9 1020.9 3.6
27/02:30pm 12.7 11.4 11.1 90 0.8 NE 9 13 5 7 1021.0 1021.0 3.6
27/02:00pm 12.8 11.7 10.7 87 1.1 NE 7 9 4 5 1021.2 1021.2 3.6
27/01:30pm 12.9 11.4 10.6 86 1.2 NE 9 9 5 5 1021.3 1021.3 3.6
27/01:00pm 12.6 12.7 10.1 85 1.3 CALM 0 0 0 0 1022.0 1022.0 3.4
27/12:30pm 13.1 11.8 11.2 88 1.0 N 9 9 5 5 1022.4 1022.4 3.4
27/12:00pm 13.1 11.8 11.2 88 1.0 N 9 11 5 6 1022.8 1022.8 2.8
27/11:30am 13.3 12.2 11.9 91 0.8 NNW 9 11 5 6 1023.4 1023.4 2.4
27/11:00am 12.9 10.9 11.5 91 0.7 NW 13 15 7 8 1024.2 1024.2 1.4
27/10:30am 13.1 11.0 11.3 89 1.0 NW 13 17 7 9 1024.0 1024.0 0.6
27/10:00am 13.3 12.0 11.2 87 1.1 NW 9 11 5 6 1023.6 1023.6 0.2
27/09:30am 13.3 11.2 11.0 86 1.2 N 13 17 7 9 1023.4 1023.4 0.0
27/09:00am 12.8 10.7 11.0 89 1.0 NNE 13 17 7 9 1023.0 1023.0 0.8
27/08:30am 12.4 10.5 10.6 89 0.9 NE 11 15 6 8 1023.0 1023.0 0.6
27/08:00am 12.3 10.1 10.7 90 0.8 NE 13 17 7 9 1022.9 1022.9 0.6
27/07:30am 12.0 10.3 11.1 94 0.5 NE 11 15 6 8 1023.0 1023.0 0.6
27/07:00am 11.6 9.8 10.7 94 0.5 ENE 11 13 6 7 1022.5 1022.5 0.6
27/06:30am 11.7 10.8 10.6 93 0.6 E 6 7 3 4 1022.3 1022.3 0.4
27/06:00am 11.7 10.6 10.6 93 0.6 E 7 9 4 5 1022.0 1022.0 0.4
27/05:30am 11.8 12.0 10.7 93 0.6 CALM 0 0 0 0 1021.3 1021.3 0.4
27/05:00am 11.8 11.2 10.5 92 0.7 NNE 4 9 2 5 1021.5 1021.4 0.4
27/04:30am 11.9 10.0 10.6 92 0.7 NNE 11 15 6 8 1021.6 1021.5 0.4
27/04:00am 11.8 10.3 10.7 93 0.6 NE 9 9 5 5 1022.1 1022.1 0.4
27/03:30am 12.0 10.9 10.6 91 0.7 S 7 11 4 6 1021.9 1021.9 0.2
27/03:00am 12.1 12.2 10.3 89 0.9 CALM 0 0 0 0 1022.2 1022.2 0.0
27/02:30am 11.8 11.5 10.0 89 0.9 WSW 2 6 1 3 1022.3 1022.3 0.0
27/02:00am 12.1 11.8 10.2 88 1.0 S 2 9 1 5 1021.9 1021.9 0.0
27/01:30am 12.1 12.2 10.0 87 1.1 CALM 0 0 0 0 1021.5 1021.4 0.0
27/01:00am 12.3 12.4 10.2 87 1.1 CALM 0 0 0 0 1021.8 1021.8 0.0
27/12:30am 12.2 12.3 10.1 87 1.1 CALM 0 0 0 0 1021.7 1021.6 0.0
27/12:00am 12.5 12.7 10.4 87 1.1 CALM 0 0 0 0 1022.4 1022.4 0.0
 
Date/Time
EST
Temp
°C
App
Temp
°C
Dew
Point
Rel
Hum
%
Delta-T
°C
Wind Press
QNH
hPa
Press
MSL
hPa
Rain
since 9 am
mm
Dir
 
Spd
km/h
Gust
km/h
Spd
kts
Gust
kts
26/11:30pm 12.3 12.4 10.2 87 1.1 CALM 0 0 0 0 1022.4 1022.4 0.0
26/11:00pm 12.4 12.5 10.1 86 1.2 CALM 0 0 0 0 1022.6 1022.6 0.0
26/10:30pm 12.9 13.0 10.3 84 1.4 CALM 0 0 0 0 1023.1 1023.1 0.0
26/10:00pm 13.1 11.6 10.5 84 1.4 SSW 9 13 5 7 1023.2 1023.2 0.0
26/09:30pm 13.4 11.9 10.6 83 1.5 S 9 11 5 6 1022.7 1022.7 0.0
26/09:00pm 13.6 11.2 10.2 80 1.8 S 13 15 7 8 1022.5 1022.5 0.0
26/08:30pm 14.2 12.5 9.8 75 2.3 SSW 9 11 5 6 1022.9 1022.9 0.0
26/08:00pm 13.9 12.1 9.3 74 2.4 S 9 11 5 6 1022.3 1022.3 0.0
26/07:30pm 14.3 12.5 9.3 72 2.6 S 9 11 5 6 1022.5 1022.5 0.0
26/07:00pm 14.8 12.9 9.0 68 3.0 SSW 9 11 5 6 1022.7 1022.7 0.0
26/06:30pm 15.1 11.9 6.7 57 4.1 SSW 13 13 7 7 1022.6 1022.6 0.0
26/06:00pm 15.9 12.6 6.3 53 4.7 SW 13 15 7 8 1022.3 1022.3 0.0
26/05:30pm 16.8 13.5 6.3 50 5.2 SW 13 17 7 9 1021.9 1021.9 0.0
26/05:00pm 17.9 15.4 6.4 47 5.7 SW 9 13 5 7 1021.1 1021.1 0.0
26/04:30pm 19.1 15.6 5.6 41 6.7 SW 13 17 7 9 1021.1 1021.1 0.0
26/04:00pm 18.7 15.6 5.5 42 6.5 WSW 11 17 6 9 1020.5 1020.5 0.0
26/03:30pm 18.9 16.2 5.7 42 6.5 SW 9 15 5 8 1020.6 1020.6 0.0
26/03:00pm 19.4 16.0 5.8 41 6.8 SW 13 20 7 11 1020.4 1020.4 0.0
26/02:30pm 19.7 17.2 6.4 42 6.7 WSW 9 15 5 8 1020.6 1020.6 0.0
26/02:00pm 18.6 16.1 8.0 50 5.5 SW 11 17 6 9 1020.7 1020.7 0.0
26/01:30pm 18.3 15.5 6.8 47 5.8 WNW 11 17 6 9 1021.0 1021.0 0.0
26/01:00pm 17.5 15.7 8.1 54 4.8 NNW 7 15 4 8 1021.5 1021.4 0.0
26/12:30pm 16.5 14.3 8.0 57 4.3 NW 9 15 5 8 1022.3 1022.3 0.0
26/12:00pm 15.9 14.4 9.3 65 3.4 SW 7 11 4 6 1023.1 1023.1 0.0
26/11:30am 15.5 12.8 9.0 65 3.4 SW 13 19 7 10 1023.8 1023.8 0.0
26/11:00am 14.4 13.0 8.8 69 2.9 WNW 6 11 3 6 1024.0 1024.0 0.0
26/10:50am 14.1 12.2 8.9 71 2.7 NW 9 15 5 8 1024.1 1024.1 0.0
26/10:30am 13.0 12.8 9.1 77 2.0 CALM 0 0 0 0 1024.1 1024.1 0.0
26/10:22am 14.0 13.7 10.2 78 2.0 NW 2 7 1 4 1024.0 1024.0 0.0
26/10:00am 11.6 10.8 9.7 88 1.0 NNW 4 7 2 4 1024.3 1024.3 0.0
26/09:30am 10.5 10.5 9.7 95 0.4 CALM 0 0 0 0 1024.1 1024.1 0.0
26/09:26am 10.3 10.2 9.5 95 0.4 CALM 0 0 0 0 1024.2 1024.2 0.0
26/09:15am 10.0 9.1 9.4 96 0.3 SSW 4 7 2 4 1024.0 1024.0 0.0
26/09:00am 9.7 9.5 9.1 96 0.3 CALM 0 0 0 0 1024.0 1024.0 0.0
26/08:51am 9.3 9.0 8.8 97 0.2 CALM 0 0 0 0 1024.1 1024.1 0.0
26/08:30am 8.8 8.5 8.5 98 0.1 CALM 0 0 0 0 1023.7 1023.7 0.0
26/08:07am 8.2 7.7 7.9 98 0.1 CALM 0 0 0 0 1024.0 1024.0 0.0
26/08:00am 7.9 7.3 7.6 98 0.1 CALM 0 0 0 0 1024.0 1024.0 0.0
26/07:49am 7.5 6.9 7.2 98 0.1 CALM 0 0 0 0 1023.9 1023.9 0.0
26/07:30am 6.7 5.9 6.4 98 0.1 CALM 0 0 0 0 1023.8 1023.8 0.0
26/07:00am 5.1 3.9 4.7 97 0.2 CALM 0 0 0 0 1023.3 1023.3 0.0
26/06:30am 4.8 3.6 4.4 97 0.2 CALM 0 0 0 0 1022.7 1022.7 0.0
26/06:00am 5.1 2.8 4.7 97 0.2 S 6 9 3 5 1022.6 1022.6 0.0
26/05:30am 5.0 3.8 4.6 97 0.2 CALM 0 0 0 0 1022.3 1022.3 0.0

Other Formats:

Comma delimited format used in spreadsheet applications
http://www.bom.gov.au/fwo/IDN60801/IDN60801.95527.axf

JavaScript Object Notation format (JSON) in row-major order
http://www.bom.gov.au/fwo/IDN60801/IDN60801.95527.json